createdAt,value
2018-04-25T00:00:54.181Z,3.87
2018-04-25T00:03:23.119Z,4.17
2018-04-25T00:05:51.355Z,4.30
2018-04-25T00:08:19.695Z,4.07
2018-04-25T00:10:47.962Z,3.93
2018-04-25T00:13:16.240Z,3.80
2018-04-25T00:15:44.456Z,3.80
2018-04-25T00:18:12.644Z,4.40
2018-04-25T00:20:41.594Z,4.20
2018-04-25T00:26:09.973Z,3.20
2018-04-25T00:28:38.158Z,3.60
2018-04-25T00:31:06.342Z,3.80
2018-04-25T00:33:34.559Z,7.90
2018-04-25T00:36:03.512Z,9.30
2018-04-25T00:38:31.701Z,9.37
2018-04-25T00:40:59.966Z,7.20
2018-04-25T00:43:28.236Z,7.27
2018-04-25T00:45:56.530Z,4.27
2018-04-25T00:48:24.736Z,4.23
2018-04-25T00:53:53.774Z,4.17
2018-04-25T00:56:21.962Z,3.90
2018-04-25T00:58:50.144Z,4.37
2018-04-25T01:01:18.367Z,3.80
2018-04-25T01:03:46.555Z,3.93
2018-04-25T01:06:27.678Z,3.53
2018-04-25T01:09:24.526Z,4.10
2018-04-25T01:11:53.748Z,3.50
2018-04-25T01:14:22.606Z,3.90
2018-04-25T01:16:50.890Z,3.80
2018-04-25T01:19:29.290Z,4.00
2018-04-25T01:21:57.475Z,4.23
2018-04-25T01:24:27.194Z,4.30
2018-04-25T01:26:55.472Z,4.20
2018-04-25T01:29:23.649Z,3.57
2018-04-25T01:31:52.693Z,9.87
2018-04-25T01:47:48.738Z,4.20
2018-04-25T01:50:27.915Z,3.97
2018-04-25T01:53:14.082Z,4.00
2018-04-25T01:56:00.868Z,9.50
2018-04-25T01:58:47.061Z,3.90
2018-04-25T02:01:20.426Z,7.30
2018-04-25T02:06:49.378Z,6.87
2018-04-25T02:09:17.560Z,4.27
2018-04-25T02:11:45.825Z,4.93
2018-04-25T02:14:27.168Z,7.20
2018-04-25T02:16:55.386Z,4.80
2018-04-25T02:19:23.663Z,7.60
2018-04-25T02:21:51.888Z,11.73
2018-04-25T02:24:20.076Z,4.70
2018-04-25T02:26:48.268Z,5.80
2018-04-25T02:29:26.794Z,8.77
2018-04-25T02:31:55.744Z,5.20
2018-04-25T02:34:23.920Z,9.80
2018-04-25T02:36:52.240Z,5.63
2018-04-25T02:39:20.518Z,10.30
2018-04-25T02:41:48.707Z,9.63
2018-04-25T02:44:17.675Z,5.10
2018-04-25T02:46:45.955Z,4.60
2018-04-25T02:49:14.135Z,5.40
2018-04-25T02:51:43.214Z,8.00
2018-04-25T02:54:13.114Z,4.83
2018-04-25T02:56:41.295Z,8.37
2018-04-25T02:59:09.585Z,12.27
2018-04-25T03:01:39.282Z,8.40
2018-04-25T03:04:07.458Z,8.33
2018-04-25T03:06:35.675Z,4.60
2018-04-25T03:09:03.851Z,6.30
2018-04-25T03:11:32.087Z,8.50
2018-04-25T03:16:45.963Z,4.70
2018-04-25T03:19:14.170Z,5.57
2018-04-25T03:21:42.338Z,7.50
2018-04-25T03:24:25.996Z,10.10
2018-04-25T03:26:54.507Z,9.73
2018-04-25T03:29:27.351Z,13.70
2018-04-25T03:31:55.536Z,6.00
2018-04-25T03:34:23.716Z,6.10
2018-04-25T03:36:52.078Z,9.30
2018-04-25T03:39:20.255Z,7.40
2018-04-25T03:41:49.482Z,9.93
2018-04-25T03:44:18.459Z,4.57
2018-04-25T03:46:46.651Z,8.60
2018-04-25T03:49:15.191Z,5.50
2018-04-25T03:54:44.598Z,10.03
2018-04-25T03:57:26.238Z,6.10
2018-04-25T03:59:56.049Z,9.23
2018-04-25T04:02:25.082Z,7.80
2018-04-25T04:04:53.265Z,11.00
2018-04-25T04:07:21.482Z,9.97
2018-04-25T04:09:49.676Z,6.73
2018-04-25T04:12:17.949Z,6.47
2018-04-25T04:14:46.222Z,11.60
2018-04-25T04:17:15.156Z,11.23
2018-04-25T04:19:43.333Z,7.27
2018-04-25T04:22:11.543Z,11.77
2018-04-25T04:28:10.733Z,12.37
2018-04-25T04:30:38.977Z,8.80
2018-04-25T04:33:07.930Z,8.70
2018-04-25T04:35:36.121Z,4.70
2018-04-25T04:38:05.061Z,8.93
2018-04-25T04:40:33.242Z,8.17
2018-04-25T04:43:01.567Z,7.50
2018-04-25T04:45:29.815Z,10.03
2018-04-25T04:47:57.998Z,5.47
2018-04-25T04:50:26.244Z,11.87
2018-04-25T04:55:55.187Z,11.60
2018-04-25T04:58:23.354Z,8.57
2018-04-25T05:00:51.656Z,13.30
2018-04-25T05:03:26.391Z,7.83
2018-04-25T05:05:55.374Z,9.40
2018-04-25T05:08:24.396Z,7.07
2018-04-25T05:10:53.363Z,6.30
2018-04-25T05:13:22.318Z,7.50
2018-04-25T05:15:50.499Z,9.00
2018-04-25T05:18:18.837Z,8.73
2018-04-25T05:20:47.039Z,5.10
2018-04-25T05:23:15.233Z,6.70
2018-04-25T05:25:43.609Z,9.20
2018-04-25T05:28:13.326Z,10.03
2018-04-25T05:30:41.516Z,12.03
2018-04-25T05:33:10.501Z,9.37
2018-04-25T05:35:39.482Z,8.60
2018-04-25T05:38:07.769Z,9.80
2018-04-25T05:40:36.767Z,8.00
2018-04-25T05:43:05.745Z,9.43
2018-04-25T05:45:33.926Z,11.93
2018-04-25T05:48:02.922Z,10.50
2018-04-25T05:50:31.907Z,11.57
2018-04-25T05:53:00.170Z,13.10
2018-04-25T05:55:29.982Z,11.33
2018-04-25T05:57:58.287Z,11.20
2018-04-25T06:00:27.255Z,9.93
2018-04-25T06:02:55.725Z,9.93
2018-04-25T06:05:24.007Z,9.30
2018-04-25T06:07:52.186Z,9.30
2018-04-25T06:10:20.523Z,8.77
2018-04-25T06:12:48.736Z,6.90
2018-04-25T06:15:16.915Z,7.50
2018-04-25T06:17:46.069Z,9.20
2018-04-25T06:20:14.290Z,8.37
2018-04-25T06:22:43.242Z,8.53
2018-04-25T06:28:26.870Z,8.40
2018-04-25T06:35:29.199Z,6.03
2018-04-25T06:37:57.494Z,7.50
2018-04-25T06:40:26.495Z,8.20
2018-04-25T06:42:54.679Z,8.13
2018-04-25T06:45:26.834Z,6.83
2018-04-25T06:48:25.666Z,7.33
2018-04-25T06:57:25.482Z,6.13
2018-04-25T07:03:25.093Z,6.30
2018-04-25T07:05:53.283Z,5.87
2018-04-25T07:11:23.118Z,5.67
2018-04-25T07:38:25.296Z,3.83
2018-04-25T07:41:00.179Z,4.37
2018-04-25T07:43:29.171Z,4.27
2018-04-25T07:46:24.982Z,4.77
2018-04-25T08:01:25.114Z,5.00
2018-04-25T08:07:24.842Z,4.43
2018-04-25T08:16:25.115Z,4.50
2018-04-25T08:21:53.383Z,4.47
2018-04-25T08:30:26.422Z,5.17
2018-04-25T08:33:26.064Z,4.27
2018-04-25T08:39:24.843Z,4.50
2018-04-25T08:41:54.230Z,4.50
2018-04-25T08:44:22.463Z,4.40
2018-04-25T08:46:50.678Z,4.47
2018-04-25T08:49:18.860Z,4.03
2018-04-25T08:51:47.823Z,3.77
2018-04-25T08:54:16.072Z,4.00
2018-04-25T08:56:44.259Z,3.20
2018-04-25T08:59:12.441Z,4.13
2018-04-25T09:01:40.694Z,3.83
2018-04-25T09:04:28.432Z,3.80
2018-04-25T09:06:56.634Z,4.10
2018-04-25T09:09:25.657Z,4.13
2018-04-25T09:11:54.632Z,3.87
2018-04-25T09:14:22.917Z,3.37
2018-04-25T09:19:52.943Z,3.23
2018-04-25T09:22:21.279Z,3.13
2018-04-25T09:24:49.555Z,3.03
2018-04-25T09:27:17.806Z,3.47
2018-04-25T09:29:46.004Z,2.70
2018-04-25T09:32:27.567Z,3.30
2018-04-25T09:35:02.707Z,3.30
2018-04-25T09:37:31.670Z,3.90
2018-04-25T09:40:00.611Z,3.30
2018-04-25T09:42:28.785Z,3.97
2018-04-25T09:44:57.007Z,3.30
2018-04-25T09:47:26.180Z,3.10
2018-04-25T09:49:54.444Z,3.40
2018-04-25T09:52:22.747Z,3.10
2018-04-25T09:54:51.036Z,3.80
2018-04-25T09:57:19.982Z,3.50
2018-04-25T09:59:48.306Z,3.40
2018-04-25T10:02:23.002Z,3.30
2018-04-25T10:04:51.214Z,3.13
2018-04-25T10:07:20.176Z,4.00
2018-04-25T10:09:48.459Z,3.23
2018-04-25T10:12:27.183Z,3.10
2018-04-25T10:14:55.452Z,3.30
2018-04-25T10:17:23.823Z,2.90
2018-04-25T10:19:51.975Z,2.90
2018-04-25T10:22:20.151Z,3.17
2018-04-25T10:24:48.357Z,3.30
2018-04-25T10:27:27.078Z,3.60
2018-04-25T10:29:55.262Z,3.47
2018-04-25T10:32:24.948Z,3.57
2018-04-25T10:34:56.177Z,3.40
2018-04-25T10:37:24.358Z,3.90
2018-04-25T10:39:52.601Z,3.90
2018-04-25T10:42:20.826Z,4.20
2018-04-25T10:44:55.142Z,3.63
2018-04-25T10:47:23.417Z,3.50
2018-04-25T10:49:51.611Z,3.60
2018-04-25T10:52:20.594Z,3.00
2018-04-25T10:54:50.281Z,3.27
2018-04-25T10:57:18.562Z,3.17
2018-04-25T10:59:46.724Z,3.10
2018-04-25T11:02:14.910Z,4.20
2018-04-25T11:04:43.150Z,3.80
2018-04-25T11:07:30.326Z,3.73
2018-04-25T11:09:59.393Z,3.20
2018-04-25T11:12:27.645Z,3.40
2018-04-25T11:14:55.920Z,3.60
2018-04-25T11:17:24.230Z,3.80
2018-04-25T11:19:53.317Z,3.60
2018-04-25T11:22:21.493Z,3.27
2018-04-25T11:27:50.650Z,4.30
2018-04-25T11:30:18.956Z,3.47
2018-04-25T11:32:47.133Z,3.73
2018-04-25T11:35:28.304Z,3.37
2018-04-25T11:37:56.515Z,3.47
2018-04-25T11:40:25.453Z,4.43
2018-04-25T11:42:53.662Z,4.30
2018-04-25T11:45:21.842Z,3.90
2018-04-25T11:47:50.084Z,4.03
2018-04-25T11:50:28.226Z,3.10
2018-04-25T11:53:26.740Z,3.87
2018-04-25T11:55:55.726Z,4.30
2018-04-25T11:58:23.898Z,3.97
2018-04-25T12:00:52.176Z,3.77
2018-04-25T12:03:20.347Z,3.67
2018-04-25T12:05:48.638Z,3.37
2018-04-25T12:08:17.612Z,3.30
2018-04-25T12:10:45.887Z,3.63
2018-04-25T12:13:26.985Z,4.60
2018-04-25T12:19:11.504Z,4.30
2018-04-25T12:21:39.905Z,4.20
2018-04-25T12:24:08.149Z,3.87
2018-04-25T12:26:36.357Z,3.70
2018-04-25T12:29:26.038Z,4.40
2018-04-25T12:34:55.529Z,3.80
2018-04-25T12:37:23.833Z,4.30
2018-04-25T12:39:52.044Z,4.10
2018-04-25T12:42:27.408Z,3.50
2018-04-25T12:44:55.582Z,4.20
2018-04-25T12:47:23.788Z,3.97
2018-04-25T12:49:52.069Z,4.73
2018-04-25T12:52:20.350Z,4.07
2018-04-25T12:54:48.552Z,4.20
2018-04-25T12:57:17.693Z,4.40
2018-04-25T12:59:45.864Z,3.97
2018-04-25T13:02:14.042Z,4.10
2018-04-25T13:04:42.314Z,5.03
2018-04-25T13:07:10.524Z,4.00
2018-04-25T13:09:39.497Z,4.20
2018-04-25T13:12:07.695Z,4.23
2018-04-25T13:14:35.990Z,3.97
2018-04-25T13:17:04.917Z,5.00
2018-04-25T13:19:33.102Z,3.27
2018-04-25T13:22:01.332Z,5.10
2018-04-25T13:24:31.010Z,4.50
2018-04-25T13:27:25.790Z,4.40
2018-04-25T13:29:54.153Z,3.83
2018-04-25T13:32:22.329Z,5.20
2018-04-25T13:34:50.566Z,5.50
2018-04-25T13:37:26.356Z,6.37
2018-04-25T13:40:24.904Z,4.03
2018-04-25T13:49:25.680Z,6.30
2018-04-25T13:55:25.702Z,6.80
2018-04-25T14:01:25.139Z,6.93
2018-04-25T14:10:25.299Z,5.27
2018-04-25T14:15:54.316Z,3.97
2018-04-25T14:18:27.139Z,5.50
2018-04-25T14:21:25.849Z,5.00
2018-04-25T14:33:25.157Z,5.70
2018-04-25T14:39:25.514Z,4.53
2018-04-25T14:57:25.674Z,4.67
2018-04-25T15:09:25.564Z,5.07
2018-04-25T15:15:25.271Z,4.63
2018-04-25T15:24:25.234Z,4.67
2018-04-25T15:36:25.457Z,3.00
2018-04-25T15:48:24.527Z,4.50
2018-04-25T16:00:25.904Z,3.93
2018-04-25T16:02:57.199Z,3.33
2018-04-25T16:05:25.397Z,3.57
2018-04-25T16:14:25.212Z,3.60
2018-04-25T16:19:56.367Z,3.00
2018-04-25T16:22:27.505Z,3.13
2018-04-25T16:24:56.596Z,3.27
2018-04-25T16:27:25.644Z,3.30
2018-04-25T16:29:53.813Z,2.43
2018-04-25T16:32:22.078Z,2.80
2018-04-25T16:47:15.533Z,3.03
2018-04-25T16:55:46.097Z,3.00
2018-04-25T17:01:28.130Z,3.00
2018-04-25T17:04:26.107Z,2.90
2018-04-25T17:34:25.773Z,4.10
2018-04-25T17:43:25.410Z,3.80
2018-04-25T17:45:53.647Z,3.70
2018-04-25T17:48:22.087Z,5.47
2018-04-25T17:50:50.506Z,3.90
2018-04-25T17:53:26.666Z,3.53
2018-04-25T17:55:54.891Z,3.90
2018-04-25T17:58:23.056Z,3.53
2018-04-25T18:00:51.242Z,3.20
2018-04-25T18:03:19.472Z,3.77
2018-04-25T18:05:47.646Z,3.90
2018-04-25T18:08:29.302Z,4.93
2018-04-25T18:10:57.504Z,5.27
2018-04-25T18:13:27.121Z,6.30
2018-04-25T18:16:26.685Z,5.50
2018-04-25T18:27:55.041Z,10.27
2018-04-25T18:30:27.047Z,9.87
2018-04-25T18:33:09.423Z,10.20
2018-04-25T18:35:38.419Z,8.83
2018-04-25T18:38:26.357Z,8.67
2018-04-25T18:40:54.544Z,9.23
2018-04-25T18:43:23.500Z,8.10
2018-04-25T18:45:51.797Z,9.57
2018-04-25T18:48:27.274Z,10.07
2018-04-25T18:50:56.028Z,8.50
2018-04-25T18:53:24.298Z,6.50
2018-04-25T18:58:52.650Z,8.67
2018-04-25T19:01:20.865Z,10.53
2018-04-25T19:03:49.142Z,10.00
2018-04-25T19:06:18.964Z,11.20
2018-04-25T19:08:47.148Z,6.07
2018-04-25T19:11:16.102Z,11.37
2018-04-25T19:13:44.361Z,9.47
2018-04-25T19:16:26.322Z,9.20
2018-04-25T19:18:55.386Z,8.40
2018-04-25T19:21:24.326Z,8.80
2018-04-25T19:23:52.546Z,9.60
2018-04-25T19:26:21.520Z,8.00
2018-04-25T19:28:49.694Z,8.17
2018-04-25T19:31:28.975Z,7.83
2018-04-25T19:33:57.941Z,7.73
2018-04-25T19:36:26.223Z,8.07
2018-04-25T19:39:25.256Z,7.80
2018-04-25T19:41:53.470Z,8.27
2018-04-25T19:44:21.643Z,8.60
2018-04-25T19:46:49.930Z,7.50
2018-04-25T19:49:18.163Z,7.23
2018-04-25T19:51:46.510Z,8.30
2018-04-25T19:54:15.486Z,7.63
2018-04-25T19:56:43.828Z,7.00
2018-04-25T19:59:27.030Z,6.63
2018-04-25T20:01:55.201Z,6.73
2018-04-25T20:04:23.443Z,6.70
2018-04-25T20:12:54.611Z,6.53
2018-04-25T20:15:22.826Z,5.87
2018-04-25T20:17:51.069Z,6.10
2018-04-25T20:20:20.066Z,6.80
2018-04-25T20:22:48.246Z,7.40
2018-04-25T20:25:17.187Z,5.70
2018-04-25T20:27:45.408Z,6.20
2018-04-25T20:30:14.361Z,6.43
2018-04-25T20:32:42.631Z,6.83
2018-04-25T20:35:27.265Z,6.70
2018-04-25T20:37:55.499Z,6.70
2018-04-25T20:40:27.241Z,6.17
2018-04-25T20:42:55.544Z,6.30
2018-04-25T20:45:24.501Z,6.90
2018-04-25T20:47:52.707Z,7.30
2018-04-25T20:50:20.960Z,6.60
2018-04-25T20:52:49.216Z,7.70
2018-04-25T20:55:27.453Z,7.33
2018-04-25T20:57:55.678Z,6.70
2018-04-25T21:00:27.611Z,7.93
2018-04-25T21:02:56.594Z,7.20
2018-04-25T21:05:24.761Z,6.73
2018-04-25T21:10:53.879Z,7.43
2018-04-25T21:13:23.035Z,7.40
2018-04-25T21:15:51.213Z,7.60
2018-04-25T21:18:19.431Z,6.90
2018-04-25T21:20:48.522Z,6.47
2018-04-25T21:23:27.434Z,7.57
2018-04-25T21:25:55.715Z,8.27
2018-04-25T21:28:25.402Z,6.10
2018-04-25T21:30:53.573Z,6.60
2018-04-25T21:33:21.872Z,7.73
2018-04-25T21:39:56.218Z,8.70
2018-04-25T21:42:26.135Z,8.10
2018-04-25T21:47:55.254Z,30.07
2018-04-25T21:50:27.647Z,37.80
2018-04-25T21:52:56.636Z,32.30
2018-04-25T21:55:25.671Z,20.87
2018-04-25T21:57:53.879Z,23.20
2018-04-25T22:00:29.432Z,34.30
2018-04-25T22:02:57.613Z,44.07
2018-04-25T22:05:27.180Z,33.87
2018-04-25T22:07:55.555Z,25.20
2018-04-25T22:10:23.746Z,16.63
2018-04-25T22:12:51.959Z,15.43
2018-04-25T22:15:20.213Z,7.97
2018-04-25T22:17:49.189Z,8.83
2018-04-25T22:20:17.468Z,10.73
2018-04-25T22:22:45.680Z,12.10
2018-04-25T22:25:13.857Z,10.63
2018-04-25T22:27:42.031Z,7.80
2018-04-25T22:30:10.383Z,5.27
2018-04-25T22:35:40.718Z,9.00
2018-04-25T22:38:09.054Z,8.13
2018-04-25T22:40:37.252Z,9.37
2018-04-25T22:43:05.554Z,9.33
2018-04-25T22:45:34.534Z,5.90
2018-04-25T22:48:26.701Z,5.90
2018-04-25T22:50:55.023Z,5.33
2018-04-25T22:53:23.222Z,5.20
2018-04-25T22:56:06.226Z,10.60
2018-04-25T23:01:34.832Z,10.03
2018-04-25T23:04:03.113Z,9.90
2018-04-25T23:06:31.360Z,5.10
2018-04-25T23:08:59.671Z,10.33
2018-04-25T23:11:29.359Z,4.73
2018-04-25T23:14:25.445Z,5.23
2018-04-25T23:16:53.642Z,8.70
2018-04-25T23:19:21.847Z,6.93
2018-04-25T23:21:50.062Z,11.53
2018-04-25T23:24:26.642Z,5.20
2018-04-25T23:26:54.895Z,6.93
2018-04-25T23:29:23.894Z,9.40
2018-04-25T23:31:52.139Z,9.60
2018-04-25T23:34:20.415Z,4.80
2018-04-25T23:36:49.519Z,5.20
2018-04-25T23:39:18.465Z,5.30
2018-04-25T23:44:48.296Z,4.50
2018-04-25T23:47:16.504Z,4.97
2018-04-25T23:49:44.675Z,5.23
2018-04-25T23:52:13.740Z,5.23
2018-04-25T23:57:42.382Z,5.43
